sensor_id;sensor_type;location;lat;lon;timestamp;temperature;humidity
27016;DHT22;14557;0.000;0.000;2022-08-19T00:01:52;23.70;55.90
27016;DHT22;14557;0.000;0.000;2022-08-19T00:04:21;23.70;56.50
27016;DHT22;14557;0.000;0.000;2022-08-19T00:06:47;23.60;55.90
27016;DHT22;14557;0.000;0.000;2022-08-19T00:09:15;23.60;56.00
27016;DHT22;14557;0.000;0.000;2022-08-19T00:11:42;23.60;56.00
27016;DHT22;14557;0.000;0.000;2022-08-19T00:14:10;23.50;55.90
27016;DHT22;14557;0.000;0.000;2022-08-19T00:16:37;23.50;55.90
27016;DHT22;14557;0.000;0.000;2022-08-19T00:19:04;23.50;56.00
27016;DHT22;14557;0.000;0.000;2022-08-19T00:21:30;23.50;56.00
27016;DHT22;14557;0.000;0.000;2022-08-19T00:23:56;23.50;56.00
27016;DHT22;14557;0.000;0.000;2022-08-19T00:26:27;23.50;55.90
27016;DHT22;14557;0.000;0.000;2022-08-19T00:28:53;23.40;55.90
27016;DHT22;14557;0.000;0.000;2022-08-19T00:31:19;23.40;56.00
27016;DHT22;14557;0.000;0.000;2022-08-19T00:33:46;23.40;55.90
27016;DHT22;14557;0.000;0.000;2022-08-19T00:36:14;23.40;56.00
27016;DHT22;14557;0.000;0.000;2022-08-19T00:38:40;23.30;55.90
27016;DHT22;14557;0.000;0.000;2022-08-19T00:41:14;23.30;55.90
27016;DHT22;14557;0.000;0.000;2022-08-19T00:43:40;23.20;55.90
27016;DHT22;14557;0.000;0.000;2022-08-19T00:46:07;23.20;55.90
27016;DHT22;14557;0.000;0.000;2022-08-19T00:48:33;23.20;56.00
27016;DHT22;14557;0.000;0.000;2022-08-19T00:51:00;23.20;56.00
27016;DHT22;14557;0.000;0.000;2022-08-19T00:53:28;23.20;56.00
27016;DHT22;14557;0.000;0.000;2022-08-19T00:55:58;23.10;56.00
27016;DHT22;14557;0.000;0.000;2022-08-19T00:58:27;23.10;56.00
27016;DHT22;14557;0.000;0.000;2022-08-19T01:00:54;23.10;56.00
27016;DHT22;14557;0.000;0.000;2022-08-19T01:03:21;23.10;56.00
27016;DHT22;14557;0.000;0.000;2022-08-19T01:05:49;23.10;56.00
27016;DHT22;14557;0.000;0.000;2022-08-19T01:08:17;23.10;56.10
27016;DHT22;14557;0.000;0.000;2022-08-19T01:10:52;23.00;56.10
27016;DHT22;14557;0.000;0.000;2022-08-19T01:13:20;23.00;56.20
27016;DHT22;14557;0.000;0.000;2022-08-19T01:15:52;23.00;56.20
27016;DHT22;14557;0.000;0.000;2022-08-19T01:18:19;23.00;56.90
27016;DHT22;14557;0.000;0.000;2022-08-19T01:20:46;22.90;56.20
27016;DHT22;14557;0.000;0.000;2022-08-19T01:23:13;22.90;56.40
27016;DHT22;14557;0.000;0.000;2022-08-19T01:25:48;22.90;56.40
27016;DHT22;14557;0.000;0.000;2022-08-19T01:28:20;22.80;56.40
27016;DHT22;14557;0.000;0.000;2022-08-19T01:30:47;22.90;56.50
27016;DHT22;14557;0.000;0.000;2022-08-19T01:33:13;22.90;56.50
27016;DHT22;14557;0.000;0.000;2022-08-19T01:35:40;22.80;56.50
27016;DHT22;14557;0.000;0.000;2022-08-19T01:38:09;22.80;56.60
27016;DHT22;14557;0.000;0.000;2022-08-19T01:40:39;22.80;56.60
27016;DHT22;14557;0.000;0.000;2022-08-19T01:43:05;22.80;56.70
27016;DHT22;14557;0.000;0.000;2022-08-19T01:45:33;22.80;56.70
27016;DHT22;14557;0.000;0.000;2022-08-19T01:48:02;22.70;56.70
27016;DHT22;14557;0.000;0.000;2022-08-19T01:50:31;22.70;56.80
27016;DHT22;14557;0.000;0.000;2022-08-19T01:52:58;22.70;56.90
27016;DHT22;14557;0.000;0.000;2022-08-19T01:55:25;22.70;56.90
27016;DHT22;14557;0.000;0.000;2022-08-19T01:57:55;22.70;57.00
27016;DHT22;14557;0.000;0.000;2022-08-19T02:00:24;22.60;56.90
27016;DHT22;14557;0.000;0.000;2022-08-19T02:02:50;22.70;57.00
27016;DHT22;14557;0.000;0.000;2022-08-19T02:05:16;22.60;57.00
27016;DHT22;14557;0.000;0.000;2022-08-19T02:07:44;22.60;57.10
27016;DHT22;14557;0.000;0.000;2022-08-19T02:10:19;22.60;57.10
27016;DHT22;14557;0.000;0.000;2022-08-19T02:12:45;22.60;57.10
27016;DHT22;14557;0.000;0.000;2022-08-19T02:15:11;22.60;57.10
27016;DHT22;14557;0.000;0.000;2022-08-19T02:17:38;22.60;57.20
27016;DHT22;14557;0.000;0.000;2022-08-19T02:20:05;22.50;57.10
27016;DHT22;14557;0.000;0.000;2022-08-19T02:22:32;22.50;57.10
27016;DHT22;14557;0.000;0.000;2022-08-19T02:24:58;22.50;57.10
27016;DHT22;14557;0.000;0.000;2022-08-19T02:27:24;22.50;57.20
27016;DHT22;14557;0.000;0.000;2022-08-19T02:29:51;22.50;57.20
27016;DHT22;14557;0.000;0.000;2022-08-19T02:32:18;22.50;57.20
27016;DHT22;14557;0.000;0.000;2022-08-19T02:34:47;22.40;57.10
27016;DHT22;14557;0.000;0.000;2022-08-19T02:37:13;22.50;57.20
27016;DHT22;14557;0.000;0.000;2022-08-19T02:39:58;22.40;57.20
27016;DHT22;14557;0.000;0.000;2022-08-19T02:42:24;22.40;57.20
27016;DHT22;14557;0.000;0.000;2022-08-19T02:44:50;22.40;57.30
27016;DHT22;14557;0.000;0.000;2022-08-19T02:47:17;22.40;57.30
27016;DHT22;14557;0.000;0.000;2022-08-19T02:49:44;22.40;57.40
27016;DHT22;14557;0.000;0.000;2022-08-19T02:52:10;22.30;57.30
27016;DHT22;14557;0.000;0.000;2022-08-19T02:54:37;22.30;57.30
27016;DHT22;14557;0.000;0.000;2022-08-19T02:57:04;22.40;57.20
27016;DHT22;14557;0.000;0.000;2022-08-19T02:59:31;22.40;57.20
27016;DHT22;14557;0.000;0.000;2022-08-19T03:01:57;22.40;57.20
27016;DHT22;14557;0.000;0.000;2022-08-19T03:04:22;22.40;57.20
27016;DHT22;14557;0.000;0.000;2022-08-19T03:06:50;22.40;57.20
27016;DHT22;14557;0.000;0.000;2022-08-19T03:09:17;22.30;57.20
27016;DHT22;14557;0.000;0.000;2022-08-19T03:11:43;22.30;57.10
27016;DHT22;14557;0.000;0.000;2022-08-19T03:14:10;22.30;57.10
27016;DHT22;14557;0.000;0.000;2022-08-19T03:16:48;22.30;57.20
27016;DHT22;14557;0.000;0.000;2022-08-19T03:19:18;22.30;57.10
27016;DHT22;14557;0.000;0.000;2022-08-19T03:21:45;22.30;57.10
27016;DHT22;14557;0.000;0.000;2022-08-19T03:24:12;22.30;57.10
27016;DHT22;14557;0.000;0.000;2022-08-19T03:26:41;22.20;57.00
27016;DHT22;14557;0.000;0.000;2022-08-19T03:29:07;22.20;57.60
27016;DHT22;14557;0.000;0.000;2022-08-19T03:31:34;22.20;56.80
27016;DHT22;14557;0.000;0.000;2022-08-19T03:34:00;22.20;56.90
27016;DHT22;14557;0.000;0.000;2022-08-19T03:36:26;22.20;56.80
27016;DHT22;14557;0.000;0.000;2022-08-19T03:38:56;22.20;56.70
27016;DHT22;14557;0.000;0.000;2022-08-19T03:41:25;22.20;56.80
27016;DHT22;14557;0.000;0.000;2022-08-19T03:43:52;22.20;56.80
27016;DHT22;14557;0.000;0.000;2022-08-19T03:46:24;22.20;57.40
27016;DHT22;14557;0.000;0.000;2022-08-19T03:48:53;22.10;56.70
27016;DHT22;14557;0.000;0.000;2022-08-19T03:51:39;22.10;56.70
27016;DHT22;14557;0.000;0.000;2022-08-19T03:54:08;22.10;56.70
27016;DHT22;14557;0.000;0.000;2022-08-19T03:56:36;22.10;56.70
27016;DHT22;14557;0.000;0.000;2022-08-19T03:59:02;22.10;56.60
27016;DHT22;14557;0.000;0.000;2022-08-19T04:01:29;22.10;56.70
27016;DHT22;14557;0.000;0.000;2022-08-19T04:03:59;22.10;56.60
27016;DHT22;14557;0.000;0.000;2022-08-19T04:06:33;22.10;56.60
27016;DHT22;14557;0.000;0.000;2022-08-19T04:09:02;22.00;56.60
27016;DHT22;14557;0.000;0.000;2022-08-19T04:11:33;22.00;56.60
27016;DHT22;14557;0.000;0.000;2022-08-19T04:14:00;22.00;56.60
27016;DHT22;14557;0.000;0.000;2022-08-19T04:16:27;22.00;56.60
27016;DHT22;14557;0.000;0.000;2022-08-19T04:18:55;22.00;56.60
27016;DHT22;14557;0.000;0.000;2022-08-19T04:21:23;22.00;56.70
27016;DHT22;14557;0.000;0.000;2022-08-19T04:23:49;22.00;56.70
27016;DHT22;14557;0.000;0.000;2022-08-19T04:26:20;22.00;56.70
27016;DHT22;14557;0.000;0.000;2022-08-19T04:28:47;21.90;56.60
27016;DHT22;14557;0.000;0.000;2022-08-19T04:31:19;21.90;56.60
27016;DHT22;14557;0.000;0.000;2022-08-19T04:33:45;21.90;56.60
27016;DHT22;14557;0.000;0.000;2022-08-19T04:36:23;21.90;56.70
27016;DHT22;14557;0.000;0.000;2022-08-19T04:38:50;21.90;56.60
27016;DHT22;14557;0.000;0.000;2022-08-19T04:41:18;21.90;56.60
27016;DHT22;14557;0.000;0.000;2022-08-19T04:44:03;21.90;56.70
27016;DHT22;14557;0.000;0.000;2022-08-19T04:46:29;21.90;56.70
27016;DHT22;14557;0.000;0.000;2022-08-19T04:48:58;21.90;56.70
27016;DHT22;14557;0.000;0.000;2022-08-19T04:51:25;21.80;56.60
27016;DHT22;14557;0.000;0.000;2022-08-19T04:53:50;21.80;56.60
27016;DHT22;14557;0.000;0.000;2022-08-19T04:56:18;21.80;56.70
27016;DHT22;14557;0.000;0.000;2022-08-19T04:58:48;21.80;56.70
27016;DHT22;14557;0.000;0.000;2022-08-19T05:01:22;21.80;56.80
27016;DHT22;14557;0.000;0.000;2022-08-19T05:03:49;21.80;56.80
27016;DHT22;14557;0.000;0.000;2022-08-19T05:06:17;21.80;56.90
27016;DHT22;14557;0.000;0.000;2022-08-19T05:08:45;21.80;56.90
27016;DHT22;14557;0.000;0.000;2022-08-19T05:11:19;21.80;56.90
27016;DHT22;14557;0.000;0.000;2022-08-19T05:13:46;21.80;56.90
27016;DHT22;14557;0.000;0.000;2022-08-19T05:16:15;21.80;56.90
27016;DHT22;14557;0.000;0.000;2022-08-19T05:18:41;21.80;57.00
27016;DHT22;14557;0.000;0.000;2022-08-19T05:21:26;21.80;57.00
27016;DHT22;14557;0.000;0.000;2022-08-19T05:24:11;21.80;57.10
27016;DHT22;14557;0.000;0.000;2022-08-19T05:26:40;21.70;57.00
27016;DHT22;14557;0.000;0.000;2022-08-19T05:29:07;21.80;57.10
27016;DHT22;14557;0.000;0.000;2022-08-19T05:31:35;21.70;57.10
27016;DHT22;14557;0.000;0.000;2022-08-19T05:34:01;21.70;57.10
27016;DHT22;14557;0.000;0.000;2022-08-19T05:36:28;21.70;57.10
27016;DHT22;14557;0.000;0.000;2022-08-19T05:38:54;21.70;57.80
27016;DHT22;14557;0.000;0.000;2022-08-19T05:41:23;21.70;57.20
27016;DHT22;14557;0.000;0.000;2022-08-19T05:43:58;21.70;57.30
27016;DHT22;14557;0.000;0.000;2022-08-19T05:46:26;21.70;57.30
27016;DHT22;14557;0.000;0.000;2022-08-19T05:48:52;21.70;57.30
27016;DHT22;14557;0.000;0.000;2022-08-19T05:51:17;21.70;57.30
27016;DHT22;14557;0.000;0.000;2022-08-19T05:53:44;21.70;57.40
27016;DHT22;14557;0.000;0.000;2022-08-19T05:56:13;21.70;57.50
27016;DHT22;14557;0.000;0.000;2022-08-19T05:58:40;21.70;57.50
27016;DHT22;14557;0.000;0.000;2022-08-19T06:01:12;21.70;57.50
27016;DHT22;14557;0.000;0.000;2022-08-19T06:03:39;21.70;57.60
27016;DHT22;14557;0.000;0.000;2022-08-19T06:06:07;21.70;57.60
27016;DHT22;14557;0.000;0.000;2022-08-19T06:08:33;21.70;57.60
27016;DHT22;14557;0.000;0.000;2022-08-19T06:11:56;21.70;57.70
27016;DHT22;14557;0.000;0.000;2022-08-19T06:14:04;21.60;57.60
27016;DHT22;14557;0.000;0.000;2022-08-19T06:16:30;21.60;57.70
27016;DHT22;14557;0.000;0.000;2022-08-19T06:18:59;21.60;57.70
27016;DHT22;14557;0.000;0.000;2022-08-19T06:21:27;21.60;57.70
27016;DHT22;14557;0.000;0.000;2022-08-19T06:23:54;21.60;57.80
27016;DHT22;14557;0.000;0.000;2022-08-19T06:26:21;21.60;57.80
27016;DHT22;14557;0.000;0.000;2022-08-19T06:28:48;21.60;57.80
27016;DHT22;14557;0.000;0.000;2022-08-19T06:31:20;21.60;57.80
27016;DHT22;14557;0.000;0.000;2022-08-19T06:33:47;21.60;57.90
27016;DHT22;14557;0.000;0.000;2022-08-19T06:36:28;21.60;57.90
27016;DHT22;14557;0.000;0.000;2022-08-19T06:39:04;21.60;57.90
27016;DHT22;14557;0.000;0.000;2022-08-19T06:41:35;21.60;58.00
27016;DHT22;14557;0.000;0.000;2022-08-19T06:44:01;21.60;58.00
27016;DHT22;14557;0.000;0.000;2022-08-19T06:46:27;21.60;58.10
27016;DHT22;14557;0.000;0.000;2022-08-19T06:48:53;21.60;58.00
27016;DHT22;14557;0.000;0.000;2022-08-19T06:51:20;21.60;58.20
27016;DHT22;14557;0.000;0.000;2022-08-19T06:53:47;21.60;58.20
27016;DHT22;14557;0.000;0.000;2022-08-19T06:56:14;21.60;58.20
27016;DHT22;14557;0.000;0.000;2022-08-19T06:58:41;21.60;58.10
27016;DHT22;14557;0.000;0.000;2022-08-19T07:01:07;21.50;58.50
27016;DHT22;14557;0.000;0.000;2022-08-19T07:03:35;21.60;58.40
27016;DHT22;14557;0.000;0.000;2022-08-19T07:06:06;21.60;58.50
27016;DHT22;14557;0.000;0.000;2022-08-19T07:08:33;21.60;58.70
27016;DHT22;14557;0.000;0.000;2022-08-19T07:10:59;21.60;58.70
27016;DHT22;14557;0.000;0.000;2022-08-19T07:13:25;21.50;58.60
27016;DHT22;14557;0.000;0.000;2022-08-19T07:15:51;21.50;58.70
27016;DHT22;14557;0.000;0.000;2022-08-19T07:18:20;21.50;58.80
27016;DHT22;14557;0.000;0.000;2022-08-19T07:20:47;21.50;59.00
27016;DHT22;14557;0.000;0.000;2022-08-19T07:23:13;21.50;59.10
27016;DHT22;14557;0.000;0.000;2022-08-19T07:25:40;21.50;60.30
27016;DHT22;14557;0.000;0.000;2022-08-19T07:28:05;21.50;60.40
27016;DHT22;14557;0.000;0.000;2022-08-19T07:30:37;21.50;60.10
27016;DHT22;14557;0.000;0.000;2022-08-19T07:33:03;21.50;60.10
27016;DHT22;14557;0.000;0.000;2022-08-19T07:35:29;21.60;59.80
27016;DHT22;14557;0.000;0.000;2022-08-19T07:37:57;21.60;59.60
27016;DHT22;14557;0.000;0.000;2022-08-19T07:40:27;21.60;59.50
27016;DHT22;14557;0.000;0.000;2022-08-19T07:42:53;21.60;59.50
27016;DHT22;14557;0.000;0.000;2022-08-19T07:45:19;21.70;59.20
27016;DHT22;14557;0.000;0.000;2022-08-19T07:47:45;21.60;59.10
27016;DHT22;14557;0.000;0.000;2022-08-19T07:50:11;21.60;59.30
27016;DHT22;14557;0.000;0.000;2022-08-19T07:52:38;21.60;59.40
27016;DHT22;14557;0.000;0.000;2022-08-19T07:55:10;21.60;59.30
27016;DHT22;14557;0.000;0.000;2022-08-19T07:57:36;21.70;59.30
27016;DHT22;14557;0.000;0.000;2022-08-19T08:00:03;21.60;59.20
27016;DHT22;14557;0.000;0.000;2022-08-19T08:02:29;21.60;59.30
27016;DHT22;14557;0.000;0.000;2022-08-19T08:04:55;21.60;60.10
27016;DHT22;14557;0.000;0.000;2022-08-19T08:07:39;21.60;59.30
27016;DHT22;14557;0.000;0.000;2022-08-19T08:10:23;21.70;59.20
27016;DHT22;14557;0.000;0.000;2022-08-19T08:12:49;21.60;59.10
27016;DHT22;14557;0.000;0.000;2022-08-19T08:15:15;21.60;59.10
27016;DHT22;14557;0.000;0.000;2022-08-19T08:17:42;21.60;59.00
27016;DHT22;14557;0.000;0.000;2022-08-19T08:20:09;21.60;59.00
27016;DHT22;14557;0.000;0.000;2022-08-19T08:22:35;21.60;59.80
27016;DHT22;14557;0.000;0.000;2022-08-19T08:25:22;21.70;60.00
27016;DHT22;14557;0.000;0.000;2022-08-19T08:27:49;21.70;60.70
27016;DHT22;14557;0.000;0.000;2022-08-19T08:30:23;21.80;61.00
27016;DHT22;14557;0.000;0.000;2022-08-19T08:32:50;21.80;61.80
27016;DHT22;14557;0.000;0.000;2022-08-19T08:35:19;21.80;65.80
27016;DHT22;14557;0.000;0.000;2022-08-19T08:37:46;21.90;62.30
27016;DHT22;14557;0.000;0.000;2022-08-19T08:42:58;21.90;66.80
27016;DHT22;14557;0.000;0.000;2022-08-19T08:45:28;21.90;62.80
27016;DHT22;14557;0.000;0.000;2022-08-19T08:47:55;21.90;60.80
27016;DHT22;14557;0.000;0.000;2022-08-19T08:52:56;21.90;60.20
27016;DHT22;14557;0.000;0.000;2022-08-19T08:55:26;21.90;59.90
27016;DHT22;14557;0.000;0.000;2022-08-19T08:58:01;21.90;59.30
27016;DHT22;14557;0.000;0.000;2022-08-19T09:00:34;22.00;58.80
27016;DHT22;14557;0.000;0.000;2022-08-19T09:03:01;22.00;58.70
27016;DHT22;14557;0.000;0.000;2022-08-19T09:08:16;22.00;58.50
27016;DHT22;14557;0.000;0.000;2022-08-19T09:10:57;21.90;58.30
27016;DHT22;14557;0.000;0.000;2022-08-19T09:16:22;22.00;58.30
27016;DHT22;14557;0.000;0.000;2022-08-19T09:18:56;21.90;58.10
27016;DHT22;14557;0.000;0.000;2022-08-19T09:21:23;22.00;57.90
27016;DHT22;14557;0.000;0.000;2022-08-19T09:23:51;22.00;57.90
27016;DHT22;14557;0.000;0.000;2022-08-19T09:26:19;22.00;57.90
27016;DHT22;14557;0.000;0.000;2022-08-19T09:28:48;22.00;57.80
27016;DHT22;14557;0.000;0.000;2022-08-19T09:31:14;22.00;57.80
27016;DHT22;14557;0.000;0.000;2022-08-19T09:33:41;22.00;57.70
27016;DHT22;14557;0.000;0.000;2022-08-19T09:36:12;22.00;57.60
27016;DHT22;14557;0.000;0.000;2022-08-19T09:38:39;22.00;57.50
27016;DHT22;14557;0.000;0.000;2022-08-19T09:41:14;22.00;57.30
27016;DHT22;14557;0.000;0.000;2022-08-19T09:43:42;22.00;57.30
27016;DHT22;14557;0.000;0.000;2022-08-19T09:46:10;22.00;57.20
27016;DHT22;14557;0.000;0.000;2022-08-19T09:48:40;22.00;57.10
27016;DHT22;14557;0.000;0.000;2022-08-19T09:51:12;22.00;56.80
27016;DHT22;14557;0.000;0.000;2022-08-19T09:53:42;22.00;56.80
27016;DHT22;14557;0.000;0.000;2022-08-19T09:56:07;22.10;56.50
27016;DHT22;14557;0.000;0.000;2022-08-19T09:58:34;22.10;56.10
27016;DHT22;14557;0.000;0.000;2022-08-19T10:01:01;22.10;56.00
27016;DHT22;14557;0.000;0.000;2022-08-19T10:03:29;22.10;56.10
27016;DHT22;14557;0.000;0.000;2022-08-19T10:05:56;22.20;56.10
27016;DHT22;14557;0.000;0.000;2022-08-19T10:08:27;22.20;56.00
27016;DHT22;14557;0.000;0.000;2022-08-19T10:10:54;22.20;56.10
27016;DHT22;14557;0.000;0.000;2022-08-19T10:13:23;22.20;56.10
27016;DHT22;14557;0.000;0.000;2022-08-19T10:15:51;22.20;56.10
27016;DHT22;14557;0.000;0.000;2022-08-19T10:18:18;22.20;56.00
27016;DHT22;14557;0.000;0.000;2022-08-19T10:20:45;22.20;56.60
27016;DHT22;14557;0.000;0.000;2022-08-19T10:23:12;22.20;56.00
27016;DHT22;14557;0.000;0.000;2022-08-19T10:25:38;22.30;55.70
27016;DHT22;14557;0.000;0.000;2022-08-19T10:28:04;22.30;55.70
27016;DHT22;14557;0.000;0.000;2022-08-19T10:30:31;22.30;55.70
27016;DHT22;14557;0.000;0.000;2022-08-19T10:32:57;22.30;55.60
27016;DHT22;14557;0.000;0.000;2022-08-19T10:35:23;22.40;55.60
27016;DHT22;14557;0.000;0.000;2022-08-19T10:37:52;22.30;55.60
27016;DHT22;14557;0.000;0.000;2022-08-19T10:40:17;22.40;55.40
27016;DHT22;14557;0.000;0.000;2022-08-19T10:42:43;22.40;55.90
27016;DHT22;14557;0.000;0.000;2022-08-19T10:45:10;22.50;58.20
27016;DHT22;14557;0.000;0.000;2022-08-19T10:47:36;22.50;55.90
27016;DHT22;14557;0.000;0.000;2022-08-19T10:50:03;22.50;55.50
27016;DHT22;14557;0.000;0.000;2022-08-19T10:52:49;22.50;56.10
27016;DHT22;14557;0.000;0.000;2022-08-19T10:55:16;22.50;55.90
27016;DHT22;14557;0.000;0.000;2022-08-19T10:58:01;22.50;55.60
27016;DHT22;14557;0.000;0.000;2022-08-19T11:00:27;22.50;55.50
27016;DHT22;14557;0.000;0.000;2022-08-19T11:02:53;22.50;55.60
27016;DHT22;14557;0.000;0.000;2022-08-19T11:05:19;22.50;55.50
27016;DHT22;14557;0.000;0.000;2022-08-19T11:07:45;22.50;55.40
27016;DHT22;14557;0.000;0.000;2022-08-19T11:10:13;22.50;55.60
27016;DHT22;14557;0.000;0.000;2022-08-19T11:12:40;22.60;55.50
27016;DHT22;14557;0.000;0.000;2022-08-19T11:15:07;22.60;55.50
27016;DHT22;14557;0.000;0.000;2022-08-19T11:17:34;22.60;55.40
27016;DHT22;14557;0.000;0.000;2022-08-19T11:20:02;22.60;55.30
27016;DHT22;14557;0.000;0.000;2022-08-19T11:22:30;22.60;55.10
27016;DHT22;14557;0.000;0.000;2022-08-19T11:24:56;22.70;55.00
27016;DHT22;14557;0.000;0.000;2022-08-19T11:27:21;22.60;55.00
27016;DHT22;14557;0.000;0.000;2022-08-19T11:29:47;22.70;54.90
27016;DHT22;14557;0.000;0.000;2022-08-19T11:32:13;22.70;55.00
27016;DHT22;14557;0.000;0.000;2022-08-19T11:34:39;22.70;55.00
27016;DHT22;14557;0.000;0.000;2022-08-19T11:37:06;22.70;55.10
27016;DHT22;14557;0.000;0.000;2022-08-19T11:39:35;22.70;55.20
27016;DHT22;14557;0.000;0.000;2022-08-19T11:42:03;22.70;55.00
27016;DHT22;14557;0.000;0.000;2022-08-19T11:44:50;22.70;54.80
27016;DHT22;14557;0.000;0.000;2022-08-19T11:47:16;22.60;54.80
27016;DHT22;14557;0.000;0.000;2022-08-19T11:49:41;22.70;54.90
27016;DHT22;14557;0.000;0.000;2022-08-19T11:52:08;22.70;55.00
27016;DHT22;14557;0.000;0.000;2022-08-19T11:54:34;22.70;54.90
27016;DHT22;14557;0.000;0.000;2022-08-19T11:57:02;22.70;55.00
27016;DHT22;14557;0.000;0.000;2022-08-19T11:59:28;22.70;55.00
27016;DHT22;14557;0.000;0.000;2022-08-19T12:01:55;22.70;54.90
27016;DHT22;14557;0.000;0.000;2022-08-19T12:04:21;22.70;54.90
27016;DHT22;14557;0.000;0.000;2022-08-19T12:06:47;22.70;54.90
27016;DHT22;14557;0.000;0.000;2022-08-19T12:09:15;22.70;55.20
27016;DHT22;14557;0.000;0.000;2022-08-19T12:11:41;22.70;55.20
27016;DHT22;14557;0.000;0.000;2022-08-19T12:14:11;22.70;54.70
27016;DHT22;14557;0.000;0.000;2022-08-19T12:16:39;22.70;54.30
27016;DHT22;14557;0.000;0.000;2022-08-19T12:19:07;22.70;54.40
27016;DHT22;14557;0.000;0.000;2022-08-19T12:21:34;22.70;55.20
27016;DHT22;14557;0.000;0.000;2022-08-19T12:24:02;22.70;55.80
27016;DHT22;14557;0.000;0.000;2022-08-19T12:26:29;22.70;54.80
27016;DHT22;14557;0.000;0.000;2022-08-19T12:28:57;22.70;54.40
27016;DHT22;14557;0.000;0.000;2022-08-19T12:31:25;22.80;54.10
27016;DHT22;14557;0.000;0.000;2022-08-19T12:33:51;22.70;53.90
27016;DHT22;14557;0.000;0.000;2022-08-19T12:36:18;22.80;53.80
27016;DHT22;14557;0.000;0.000;2022-08-19T12:38:44;22.80;53.60
27016;DHT22;14557;0.000;0.000;2022-08-19T12:41:15;22.80;53.70
27016;DHT22;14557;0.000;0.000;2022-08-19T12:43:44;22.90;53.50
27016;DHT22;14557;0.000;0.000;2022-08-19T12:46:10;22.90;53.60
27016;DHT22;14557;0.000;0.000;2022-08-19T12:48:37;22.90;53.40
27016;DHT22;14557;0.000;0.000;2022-08-19T12:51:07;22.90;53.40
27016;DHT22;14557;0.000;0.000;2022-08-19T12:53:33;23.00;53.70
27016;DHT22;14557;0.000;0.000;2022-08-19T12:55:59;22.90;53.50
27016;DHT22;14557;0.000;0.000;2022-08-19T12:58:26;23.00;53.60
27016;DHT22;14557;0.000;0.000;2022-08-19T13:00:52;23.00;55.10
27016;DHT22;14557;0.000;0.000;2022-08-19T13:03:18;23.00;57.00
27016;DHT22;14557;0.000;0.000;2022-08-19T13:05:44;23.10;57.20
27016;DHT22;14557;0.000;0.000;2022-08-19T13:08:10;23.10;55.20
27016;DHT22;14557;0.000;0.000;2022-08-19T13:10:37;23.10;56.20
27016;DHT22;14557;0.000;0.000;2022-08-19T13:13:07;23.10;54.90
27016;DHT22;14557;0.000;0.000;2022-08-19T13:15:39;23.10;53.10
27016;DHT22;14557;0.000;0.000;2022-08-19T13:18:06;23.10;53.00
27016;DHT22;14557;0.000;0.000;2022-08-19T13:20:32;23.10;53.00
27016;DHT22;14557;0.000;0.000;2022-08-19T13:22:58;23.10;52.70
27016;DHT22;14557;0.000;0.000;2022-08-19T13:25:24;23.10;52.30
27016;DHT22;14557;0.000;0.000;2022-08-19T13:27:50;23.10;53.60
27016;DHT22;14557;0.000;0.000;2022-08-19T13:30:19;23.10;54.60
27016;DHT22;14557;0.000;0.000;2022-08-19T13:33:04;23.10;63.00
27016;DHT22;14557;0.000;0.000;2022-08-19T13:35:50;23.20;60.40
27016;DHT22;14557;0.000;0.000;2022-08-19T13:38:23;23.20;59.20
27016;DHT22;14557;0.000;0.000;2022-08-19T13:40:50;23.20;59.30
27016;DHT22;14557;0.000;0.000;2022-08-19T13:43:17;23.20;57.90
27016;DHT22;14557;0.000;0.000;2022-08-19T13:45:44;23.20;63.20
27016;DHT22;14557;0.000;0.000;2022-08-19T13:48:10;23.20;60.60
27016;DHT22;14557;0.000;0.000;2022-08-19T13:50:44;23.20;57.60
27016;DHT22;14557;0.000;0.000;2022-08-19T13:53:11;23.20;54.30
27016;DHT22;14557;0.000;0.000;2022-08-19T13:55:39;23.20;58.20
27016;DHT22;14557;0.000;0.000;2022-08-19T13:58:05;23.20;53.50
27016;DHT22;14557;0.000;0.000;2022-08-19T14:00:35;23.30;52.80
27016;DHT22;14557;0.000;0.000;2022-08-19T14:03:02;23.20;52.70
27016;DHT22;14557;0.000;0.000;2022-08-19T14:05:29;23.20;53.00
27016;DHT22;14557;0.000;0.000;2022-08-19T14:07:55;23.20;52.90
27016;DHT22;14557;0.000;0.000;2022-08-19T14:10:22;23.20;52.90
27016;DHT22;14557;0.000;0.000;2022-08-19T14:12:49;23.20;52.70
27016;DHT22;14557;0.000;0.000;2022-08-19T14:15:15;23.20;52.90
27016;DHT22;14557;0.000;0.000;2022-08-19T14:17:43;23.10;52.80
27016;DHT22;14557;0.000;0.000;2022-08-19T14:20:11;23.20;52.60
27016;DHT22;14557;0.000;0.000;2022-08-19T14:22:38;23.20;52.50
27016;DHT22;14557;0.000;0.000;2022-08-19T14:25:07;23.10;52.60
27016;DHT22;14557;0.000;0.000;2022-08-19T14:27:34;23.10;55.20
27016;DHT22;14557;0.000;0.000;2022-08-19T14:29:59;23.10;55.30
27016;DHT22;14557;0.000;0.000;2022-08-19T14:32:25;23.10;54.10
27016;DHT22;14557;0.000;0.000;2022-08-19T14:34:53;23.20;53.90
27016;DHT22;14557;0.000;0.000;2022-08-19T14:37:18;23.10;53.90
27016;DHT22;14557;0.000;0.000;2022-08-19T14:39:44;23.10;53.80
27016;DHT22;14557;0.000;0.000;2022-08-19T14:42:11;23.10;53.50
27016;DHT22;14557;0.000;0.000;2022-08-19T14:44:41;23.10;53.50
27016;DHT22;14557;0.000;0.000;2022-08-19T14:47:07;23.10;53.40
27016;DHT22;14557;0.000;0.000;2022-08-19T14:49:34;23.10;53.40
27016;DHT22;14557;0.000;0.000;2022-08-19T14:52:00;23.00;53.40
27016;DHT22;14557;0.000;0.000;2022-08-19T14:54:25;23.10;53.50
27016;DHT22;14557;0.000;0.000;2022-08-19T14:56:51;23.00;53.50
27016;DHT22;14557;0.000;0.000;2022-08-19T14:59:17;23.00;53.50
27016;DHT22;14557;0.000;0.000;2022-08-19T15:01:43;23.00;53.70
27016;DHT22;14557;0.000;0.000;2022-08-19T15:04:09;23.00;53.40
27016;DHT22;14557;0.000;0.000;2022-08-19T15:06:35;23.00;52.70
27016;DHT22;14557;0.000;0.000;2022-08-19T15:09:02;23.00;53.10
27016;DHT22;14557;0.000;0.000;2022-08-19T15:11:28;23.00;52.60
27016;DHT22;14557;0.000;0.000;2022-08-19T15:13:57;23.00;52.60
27016;DHT22;14557;0.000;0.000;2022-08-19T15:16:24;23.00;52.70
27016;DHT22;14557;0.000;0.000;2022-08-19T15:18:53;23.00;52.70
27016;DHT22;14557;0.000;0.000;2022-08-19T15:21:19;23.00;53.00
27016;DHT22;14557;0.000;0.000;2022-08-19T15:23:46;23.00;52.90
27016;DHT22;14557;0.000;0.000;2022-08-19T15:26:13;23.00;53.00
27016;DHT22;14557;0.000;0.000;2022-08-19T15:28:40;23.00;53.20
27016;DHT22;14557;0.000;0.000;2022-08-19T15:31:05;23.00;54.00
27016;DHT22;14557;0.000;0.000;2022-08-19T15:33:33;23.00;53.30
27016;DHT22;14557;0.000;0.000;2022-08-19T15:36:01;22.90;53.40
27016;DHT22;14557;0.000;0.000;2022-08-19T15:38:31;22.90;53.70
27016;DHT22;14557;0.000;0.000;2022-08-19T15:40:59;22.80;53.50
27016;DHT22;14557;0.000;0.000;2022-08-19T15:43:46;22.90;56.80
27016;DHT22;14557;0.000;0.000;2022-08-19T15:46:11;22.90;55.30
27016;DHT22;14557;0.000;0.000;2022-08-19T15:48:37;22.90;54.80
27016;DHT22;14557;0.000;0.000;2022-08-19T15:51:03;22.90;54.90
27016;DHT22;14557;0.000;0.000;2022-08-19T15:53:29;22.90;54.80
27016;DHT22;14557;0.000;0.000;2022-08-19T15:55:55;22.90;54.60
27016;DHT22;14557;0.000;0.000;2022-08-19T15:58:20;22.90;54.40
27016;DHT22;14557;0.000;0.000;2022-08-19T16:01:07;22.90;55.20
27016;DHT22;14557;0.000;0.000;2022-08-19T16:03:52;22.90;55.20